Time;durP1;ratioP1;P1;durP2;ratioP2;P2;SDS_P1;SDS_P2;PMS_P1;PMS_P2;Temp;Humidity;BMP_temperature;BMP_pressure;BME280_temperature;BME280_humidity;BME280_pressure;Samples;Min_cycle;Max_cycle;Signal;HPM_P1;HPM_P2
2023/09/03 00:00:40;;;;;;;;;;;22.90;1.00;;;;;;4935157;29;19926;-63
2023/09/03 00:03:07;;;;;;;;;;;22.90;1.00;;;;;;4935064;29;19927;-63
2023/09/03 00:05:34;;;;;;;;;;;22.90;1.00;;;;;;4934456;29;20030;-62
2023/09/03 00:08:00;;;;;;;;;;;22.90;1.00;;;;;;4934919;29;19933;-63
2023/09/03 00:10:27;;;;;;;;;;;22.90;1.00;;;;;;4935411;29;20368;-63
2023/09/03 00:12:54;;;;;;;;;;;22.90;1.00;;;;;;4934998;29;19927;-63
2023/09/03 00:15:23;;;;;;;;;;;22.90;1.00;;;;;;4937560;29;20382;-63
2023/09/03 00:17:50;;;;;;;;;;;22.90;1.00;;;;;;4938667;29;19927;-63
2023/09/03 00:20:16;;;;;;;;;;;22.90;1.00;;;;;;4938504;29;19927;-63
2023/09/03 00:22:43;;;;;;;;;;;22.80;1.00;;;;;;4938698;29;20029;-62
2023/09/03 00:25:10;;;;;;;;;;;22.80;1.00;;;;;;4938510;28;19927;-61
2023/09/03 00:27:37;;;;;;;;;;;22.80;1.00;;;;;;4938064;29;20022;-63
2023/09/03 00:30:04;;;;;;;;;;;22.80;1.00;;;;;;4933878;29;19927;-63
2023/09/03 00:32:31;;;;;;;;;;;22.80;1.00;;;;;;4951529;29;19933;-61
2023/09/03 00:34:58;;;;;;;;;;;22.80;1.00;;;;;;4920645;29;20421;-63
2023/09/03 00:37:25;;;;;;;;;;;22.80;1.00;;;;;;4937908;29;20017;-63
2023/09/03 00:39:52;;;;;;;;;;;22.80;1.00;;;;;;4937982;29;19927;-62
2023/09/03 00:42:19;;;;;;;;;;;22.80;1.00;;;;;;4937691;29;19970;-63
2023/09/03 00:44:46;;;;;;;;;;;22.80;1.00;;;;;;4920557;29;19926;-63
2023/09/03 00:47:12;;;;;;;;;;;22.80;1.00;;;;;;4933383;29;19927;-62
2023/09/03 00:49:41;;;;;;;;;;;22.80;1.00;;;;;;4952271;29;19927;-63
2023/09/03 00:52:08;;;;;;;;;;;22.80;1.00;;;;;;4938136;29;19927;-60
2023/09/03 00:54:35;;;;;;;;;;;22.80;1.00;;;;;;4977436;23;19944;-61
2023/09/03 00:57:03;;;;;;;;;;;22.80;1.00;;;;;;4972975;28;20378;-62
2023/09/03 00:59:30;;;;;;;;;;;22.80;1.00;;;;;;4977921;28;19961;-61
2023/09/03 01:01:58;;;;;;;;;;;22.80;1.00;;;;;;4995480;28;19980;-62
2023/09/03 01:04:25;;;;;;;;;;;22.80;1.00;;;;;;4977750;28;19961;-62
2023/09/03 01:06:53;;;;;;;;;;;22.80;1.00;;;;;;4975856;28;19930;-62
2023/09/03 01:09:19;;;;;;;;;;;22.80;1.00;;;;;;4958470;28;20330;-61
2023/09/03 01:11:49;;;;;;;;;;;22.80;1.00;;;;;;4958618;28;19926;-62
2023/09/03 01:14:36;;;;;;;;;;;22.70;1.00;;;;;;4958559;28;19926;-62
2023/09/03 01:17:22;;;;;;;;;;;22.70;1.00;;;;;;4975282;28;19933;-60
2023/09/03 01:20:07;;;;;;;;;;;22.70;1.00;;;;;;4958278;28;19930;-61
2023/09/03 01:22:37;;;;;;;;;;;22.70;1.00;;;;;;4975499;28;19933;-61
2023/09/03 01:25:16;;;;;;;;;;;22.70;1.00;;;;;;4957635;28;19964;-61
2023/09/03 01:27:50;;;;;;;;;;;22.70;1.00;;;;;;4986800;28;20299;-62
2023/09/03 01:30:18;;;;;;;;;;;22.70;1.00;;;;;;4977490;28;20448;-61
2023/09/03 01:32:46;;;;;;;;;;;22.70;1.00;;;;;;4977353;28;19926;-62
2023/09/03 01:35:13;;;;;;;;;;;22.70;1.00;;;;;;4977104;28;20468;-62
2023/09/03 01:37:40;;;;;;;;;;;22.70;1.00;;;;;;4977237;28;20392;-62
2023/09/03 01:40:09;;;;;;;;;;;22.70;1.00;;;;;;4977120;28;20361;-61
2023/09/03 01:42:35;;;;;;;;;;;22.70;1.00;;;;;;4958747;28;19976;-62
2023/09/03 01:45:03;;;;;;;;;;;22.70;1.00;;;;;;4957593;28;19932;-61
2023/09/03 01:47:29;;;;;;;;;;;22.70;1.00;;;;;;4975110;28;19926;-62
2023/09/03 01:49:56;;;;;;;;;;;22.70;1.00;;;;;;4957511;28;19930;-63
2023/09/03 01:52:37;;;;;;;;;;;22.60;1.00;;;;;;4957593;28;19926;-62
2023/09/03 01:55:06;;;;;;;;;;;22.60;1.00;;;;;;4974729;28;19976;-61
2023/09/03 01:57:34;;;;;;;;;;;22.60;1.00;;;;;;5319713;23;19957;-64
2023/09/03 02:00:04;;;;;;;;;;;22.60;1.00;;;;;;4994241;28;19933;-62
2023/09/03 02:02:42;;;;;;;;;;;22.60;1.00;;;;;;4994365;28;19933;-61
2023/09/03 02:05:08;;;;;;;;;;;22.60;1.00;;;;;;4994047;28;20024;-63
2023/09/03 02:07:35;;;;;;;;;;;22.60;1.00;;;;;;4992923;28;19926;-61
2023/09/03 02:10:03;;;;;;;;;;;22.60;1.00;;;;;;4994064;28;19976;-63
2023/09/03 02:12:30;;;;;;;;;;;22.60;1.00;;;;;;4994108;28;20377;-62
2023/09/03 02:14:57;;;;;;;;;;;22.60;1.00;;;;;;4993844;28;20405;-62
2023/09/03 02:17:26;;;;;;;;;;;22.60;1.00;;;;;;4992698;28;20356;-62
2023/09/03 02:19:54;;;;;;;;;;;22.60;1.00;;;;;;4992777;28;20016;-62
2023/09/03 02:22:21;;;;;;;;;;;22.60;1.00;;;;;;4993718;28;19980;-62
2023/09/03 02:24:49;;;;;;;;;;;22.60;1.00;;;;;;4992466;28;19936;-62
2023/09/03 02:27:16;;;;;;;;;;;22.60;1.00;;;;;;4994397;28;19930;-62
2023/09/03 02:29:43;;;;;;;;;;;22.60;1.00;;;;;;4991972;28;20016;-61
2023/09/03 02:32:09;;;;;;;;;;;22.60;1.00;;;;;;4994840;28;19972;-63
2023/09/03 02:34:36;;;;;;;;;;;22.50;1.00;;;;;;4992687;28;20016;-63
2023/09/03 02:37:04;;;;;;;;;;;22.60;1.00;;;;;;4991993;28;20325;-62
2023/09/03 02:39:31;;;;;;;;;;;22.50;1.00;;;;;;4992289;28;19925;-62
2023/09/03 02:41:58;;;;;;;;;;;22.50;1.00;;;;;;4993554;28;19992;-62
2023/09/03 02:44:25;;;;;;;;;;;22.50;1.00;;;;;;4994424;28;20008;-61
2023/09/03 02:46:52;;;;;;;;;;;22.50;1.00;;;;;;4992273;28;20397;-62
2023/09/03 02:49:20;;;;;;;;;;;22.50;1.00;;;;;;4992333;28;19930;-61
2023/09/03 02:51:47;;;;;;;;;;;22.50;1.00;;;;;;4992129;28;19930;-61
2023/09/03 02:54:13;;;;;;;;;;;22.50;1.00;;;;;;4992209;28;19926;-62
2023/09/03 02:56:40;;;;;;;;;;;22.50;1.00;;;;;;4993214;28;20016;-62
2023/09/03 02:59:07;;;;;;;;;;;22.50;1.00;;;;;;5043072;23;20785;-64
2023/09/03 03:01:33;;;;;;;;;;;22.50;1.00;;;;;;4975712;28;19961;-60
2023/09/03 03:04:01;;;;;;;;;;;22.40;1.00;;;;;;4975759;28;19930;-63
2023/09/03 03:06:28;;;;;;;;;;;22.50;1.00;;;;;;4992956;28;19926;-62
2023/09/03 03:08:55;;;;;;;;;;;22.40;1.00;;;;;;4992916;28;19980;-61
2023/09/03 03:11:23;;;;;;;;;;;22.50;1.00;;;;;;4992931;28;19953;-63
2023/09/03 03:13:55;;;;;;;;;;;22.40;1.00;;;;;;4975684;28;20000;-60
2023/09/03 03:16:28;;;;;;;;;;;22.40;1.00;;;;;;4975646;28;20561;-62
2023/09/03 03:18:56;;;;;;;;;;;22.40;1.00;;;;;;4975573;28;19926;-61
2023/09/03 03:21:27;;;;;;;;;;;22.40;1.00;;;;;;4975385;28;19933;-60
2023/09/03 03:23:58;;;;;;;;;;;22.40;1.00;;;;;;4992796;28;19930;-62
2023/09/03 03:26:32;;;;;;;;;;;22.40;1.00;;;;;;4975437;28;19930;-62
2023/09/03 03:28:59;;;;;;;;;;;22.40;1.00;;;;;;4975411;28;19961;-62
2023/09/03 03:31:29;;;;;;;;;;;22.40;1.00;;;;;;5124681;23;19926;-62
2023/09/03 03:33:58;;;;;;;;;;;22.40;1.00;;;;;;4949361;28;19941;-61
2023/09/03 03:36:27;;;;;;;;;;;22.40;1.00;;;;;;4955728;28;19948;-61
2023/09/03 03:38:54;;;;;;;;;;;22.40;1.00;;;;;;4956076;28;19926;-61
2023/09/03 03:41:21;;;;;;;;;;;22.40;1.00;;;;;;4955986;28;19933;-62
2023/09/03 03:43:51;;;;;;;;;;;22.40;1.00;;;;;;4955884;28;19926;-62
2023/09/03 03:46:20;;;;;;;;;;;22.40;1.00;;;;;;4948093;28;19997;-62
2023/09/03 03:48:50;;;;;;;;;;;22.30;1.00;;;;;;4956345;28;19946;-62
2023/09/03 03:51:18;;;;;;;;;;;22.30;1.00;;;;;;4960022;28;19933;-62
2023/09/03 03:53:46;;;;;;;;;;;22.30;1.00;;;;;;4959798;28;19972;-62
2023/09/03 03:56:12;;;;;;;;;;;22.30;1.00;;;;;;4959699;28;19926;-62
2023/09/03 03:58:40;;;;;;;;;;;22.30;1.00;;;;;;4959630;28;19930;-62
2023/09/03 04:01:15;;;;;;;;;;;22.30;1.00;;;;;;5072653;23;20057;-63
2023/09/03 04:03:43;;;;;;;;;;;22.30;1.00;;;;;;4959496;28;19926;-62
2023/09/03 04:06:10;;;;;;;;;;;22.30;1.00;;;;;;4959542;28;19926;-62
2023/09/03 04:08:38;;;;;;;;;;;22.30;1.00;;;;;;4959742;28;19933;-63
2023/09/03 04:11:06;;;;;;;;;;;22.30;1.00;;;;;;4977077;28;20267;-62
2023/09/03 04:13:33;;;;;;;;;;;22.30;1.00;;;;;;4959475;28;19961;-63
2023/09/03 04:16:00;;;;;;;;;;;22.30;1.00;;;;;;4959413;28;20420;-63
2023/09/03 04:18:27;;;;;;;;;;;22.30;1.00;;;;;;4951057;29;19932;-63
2023/09/03 04:20:55;;;;;;;;;;;22.30;1.00;;;;;;4951814;28;19965;-64
2023/09/03 04:23:23;;;;;;;;;;;22.30;1.00;;;;;;4959490;28;19985;-62
2023/09/03 04:25:56;;;;;;;;;;;22.30;1.00;;;;;;4959498;28;20354;-63
2023/09/03 04:28:24;;;;;;;;;;;22.30;1.00;;;;;;4959163;28;19927;-63
2023/09/03 04:30:55;;;;;;;;;;;22.30;1.00;;;;;;5071867;22;19941;-63
2023/09/03 04:33:22;;;;;;;;;;;22.30;1.00;;;;;;4994583;28;20297;-63
2023/09/03 04:35:57;;;;;;;;;;;22.30;1.00;;;;;;4994360;28;20308;-63
2023/09/03 04:38:25;;;;;;;;;;;22.20;1.00;;;;;;4994690;28;19932;-61
2023/09/03 04:40:52;;;;;;;;;;;22.30;1.00;;;;;;4995929;28;20361;-61
2023/09/03 04:43:19;;;;;;;;;;;22.20;1.00;;;;;;4994496;28;19929;-62
2023/09/03 04:45:52;;;;;;;;;;;22.20;1.00;;;;;;4994421;28;19933;-62
2023/09/03 04:48:21;;;;;;;;;;;22.20;1.00;;;;;;4978418;28;19926;-62
2023/09/03 04:50:48;;;;;;;;;;;22.20;1.00;;;;;;4994176;28;19973;-62
2023/09/03 04:53:15;;;;;;;;;;;22.20;1.00;;;;;;4994163;28;19953;-62
2023/09/03 04:55:44;;;;;;;;;;;22.20;1.00;;;;;;4994000;28;19932;-62
2023/09/03 04:58:11;;;;;;;;;;;22.20;1.00;;;;;;4994184;28;20010;-62
2023/09/03 05:00:38;;;;;;;;;;;22.20;1.00;;;;;;4993829;28;19926;-63
2023/09/03 05:03:08;;;;;;;;;;;22.20;1.00;;;;;;4995326;28;19925;-62
2023/09/03 05:05:41;;;;;;;;;;;22.20;1.00;;;;;;4992806;28;19930;-62
2023/09/03 05:08:09;;;;;;;;;;;22.20;1.00;;;;;;4993613;28;19996;-62
2023/09/03 05:10:39;;;;;;;;;;;22.20;1.00;;;;;;4994714;28;19984;-62
2023/09/03 05:13:08;;;;;;;;;;;22.10;1.00;;;;;;4993405;28;19928;-62
2023/09/03 05:15:37;;;;;;;;;;;22.20;1.00;;;;;;4994167;28;19925;-62
2023/09/03 05:18:04;;;;;;;;;;;22.20;1.00;;;;;;4995309;28;19926;-63
2023/09/03 05:20:36;;;;;;;;;;;22.20;1.00;;;;;;4993917;28;20012;-63
2023/09/03 05:23:03;;;;;;;;;;;22.10;1.00;;;;;;4993675;28;19925;-62
2023/09/03 05:25:31;;;;;;;;;;;22.10;1.00;;;;;;4993628;28;19929;-63
2023/09/03 05:27:58;;;;;;;;;;;22.10;1.00;;;;;;4997338;28;19925;-63
2023/09/03 05:30:25;;;;;;;;;;;22.10;1.00;;;;;;4999197;28;19926;-63
2023/09/03 05:32:52;;;;;;;;;;;22.10;1.00;;;;;;5047281;23;20001;-63
2023/09/03 05:35:22;;;;;;;;;;;22.10;1.00;;;;;;4993386;28;19932;-62
2023/09/03 05:37:50;;;;;;;;;;;22.10;1.00;;;;;;4993319;28;19925;-60
2023/09/03 05:40:17;;;;;;;;;;;22.10;1.00;;;;;;4994690;28;19937;-62
2023/09/03 05:42:44;;;;;;;;;;;22.10;1.00;;;;;;4994567;28;19926;-62
2023/09/03 05:45:11;;;;;;;;;;;22.10;1.00;;;;;;4993529;28;19932;-63
2023/09/03 05:47:38;;;;;;;;;;;22.10;1.00;;;;;;4993234;28;19925;-62
2023/09/03 05:50:06;;;;;;;;;;;22.10;1.00;;;;;;4993581;28;19930;-63
2023/09/03 05:52:33;;;;;;;;;;;22.10;1.00;;;;;;4995388;28;19968;-62
2023/09/03 05:55:02;;;;;;;;;;;22.10;1.00;;;;;;4993605;28;19933;-63
2023/09/03 05:57:29;;;;;;;;;;;22.10;1.00;;;;;;4994488;28;19926;-63
2023/09/03 05:59:56;;;;;;;;;;;22.10;1.00;;;;;;4969595;28;19957;-62
2023/09/03 06:05:19;;;;;;;;;;;22.00;1.00;;;;;;4947945;26;19962;-62
2023/09/03 06:07:46;;;;;;;;;;;22.10;1.00;;;;;;4955322;29;19969;-62
2023/09/03 06:10:13;;;;;;;;;;;22.10;1.00;;;;;;4955388;29;19934;-63
2023/09/03 06:12:40;;;;;;;;;;;22.10;1.00;;;;;;4954076;28;19961;-64
2023/09/03 06:15:07;;;;;;;;;;;22.00;1.00;;;;;;4955020;28;19961;-63
2023/09/03 06:17:34;;;;;;;;;;;22.00;1.00;;;;;;4955169;28;19982;-63
2023/09/03 06:20:02;;;;;;;;;;;22.00;1.00;;;;;;4955402;28;19973;-64
2023/09/03 06:22:29;;;;;;;;;;;22.00;1.00;;;;;;4954819;28;20421;-63
2023/09/03 06:24:56;;;;;;;;;;;22.00;1.00;;;;;;4947063;28;20335;-63
2023/09/03 06:27:23;;;;;;;;;;;22.00;1.00;;;;;;4940152;29;19927;-63
2023/09/03 06:29:50;;;;;;;;;;;22.00;1.00;;;;;;4935921;29;19985;-64
2023/09/03 06:32:17;;;;;;;;;;;22.00;1.00;;;;;;4935724;29;19927;-64
2023/09/03 06:34:43;;;;;;;;;;;22.00;1.00;;;;;;4935756;29;19962;-63
2023/09/03 06:37:10;;;;;;;;;;;22.00;1.00;;;;;;5216465;23;19930;-63
2023/09/03 06:39:37;;;;;;;;;;;22.00;1.00;;;;;;4949253;29;19926;-63
2023/09/03 06:42:04;;;;;;;;;;;22.00;1.00;;;;;;4954893;29;19931;-62
2023/09/03 06:44:30;;;;;;;;;;;22.00;1.00;;;;;;4954793;28;19926;-62
2023/09/03 06:46:57;;;;;;;;;;;22.00;1.00;;;;;;4936396;29;20311;-62
2023/09/03 06:49:24;;;;;;;;;;;22.00;1.00;;;;;;4931285;29;20021;-63
2023/09/03 06:51:51;;;;;;;;;;;21.90;1.00;;;;;;4935254;29;20021;-64
2023/09/03 06:54:18;;;;;;;;;;;21.90;1.00;;;;;;4939835;29;19927;-63
2023/09/03 06:56:45;;;;;;;;;;;21.90;1.00;;;;;;4936655;29;19930;-63
2023/09/03 06:59:12;;;;;;;;;;;21.90;1.00;;;;;;4939200;29;19927;-62
2023/09/03 07:01:48;;;;;;;;;;;21.90;1.00;;;;;;4942820;29;20405;-62
2023/09/03 07:04:15;;;;;;;;;;;21.90;1.00;;;;;;4937944;28;19931;-61
2023/09/03 07:06:41;;;;;;;;;;;21.90;1.00;;;;;;4934186;29;20013;-62
2023/09/03 07:09:10;;;;;;;;;;;21.90;1.00;;;;;;5337076;23;20400;-63
2023/09/03 07:11:37;;;;;;;;;;;21.90;1.00;;;;;;4973878;28;19933;-63
2023/09/03 07:14:06;;;;;;;;;;;21.90;1.00;;;;;;4965503;28;21395;-63
2023/09/03 07:16:34;;;;;;;;;;;21.90;1.00;;;;;;4973280;28;19930;-63
2023/09/03 07:19:01;;;;;;;;;;;21.80;1.00;;;;;;4973984;28;19961;-63
2023/09/03 07:21:27;;;;;;;;;;;21.80;1.00;;;;;;4974217;28;20345;-64
2023/09/03 07:23:56;;;;;;;;;;;21.80;1.00;;;;;;4973287;28;19976;-64
2023/09/03 07:26:22;;;;;;;;;;;21.80;1.00;;;;;;4973858;28;19984;-63
2023/09/03 07:28:49;;;;;;;;;;;21.80;1.00;;;;;;4973659;28;19940;-63
2023/09/03 07:31:16;;;;;;;;;;;21.80;1.00;;;;;;4973657;28;20298;-62
2023/09/03 07:33:44;;;;;;;;;;;21.80;1.00;;;;;;4973641;28;20397;-62
2023/09/03 07:36:11;;;;;;;;;;;21.80;1.00;;;;;;4973574;28;19926;-63
2023/09/03 07:38:38;;;;;;;;;;;21.80;1.00;;;;;;4973632;28;20413;-63
2023/09/03 07:41:09;;;;;;;;;;;21.80;1.00;;;;;;5246325;23;19917;31
2023/09/03 07:43:35;;;;;;;;;;;21.80;1.00;;;;;;4932177;29;19933;-63
2023/09/03 07:46:02;;;;;;;;;;;21.80;1.00;;;;;;4934536;29;19933;-62
2023/09/03 07:48:29;;;;;;;;;;;21.80;1.00;;;;;;4934935;29;20470;-63
2023/09/03 07:50:56;;;;;;;;;;;21.80;1.00;;;;;;4934587;29;19931;-63
2023/09/03 07:53:22;;;;;;;;;;;21.80;1.00;;;;;;4934867;29;20299;-62
2023/09/03 07:55:50;;;;;;;;;;;21.80;1.00;;;;;;4935024;29;19927;-62
2023/09/03 07:58:16;;;;;;;;;;;21.80;1.00;;;;;;4934126;29;19931;-64
2023/09/03 08:00:44;;;;;;;;;;;21.80;1.00;;;;;;4936347;29;20018;-62
2023/09/03 08:03:10;;;;;;;;;;;21.80;1.00;;;;;;4937459;29;19927;-63
2023/09/03 08:05:37;;;;;;;;;;;21.80;1.00;;;;;;4937787;28;20363;-62
2023/09/03 08:08:04;;;;;;;;;;;21.80;1.00;;;;;;4934453;29;20264;-62
2023/09/03 08:10:31;;;;;;;;;;;21.80;1.00;;;;;;4935005;29;19934;-62
2023/09/03 08:12:57;;;;;;;;;;;21.80;1.00;;;;;;4935125;29;19927;-62
2023/09/03 08:15:24;;;;;;;;;;;21.80;1.00;;;;;;5036863;23;20028;-62
2023/09/03 08:18:09;;;;;;;;;;;21.90;1.00;;;;;;4992639;28;19932;-61
2023/09/03 08:20:36;;;;;;;;;;;21.90;1.00;;;;;;4992496;28;19925;-63
2023/09/03 08:23:03;;;;;;;;;;;21.80;1.00;;;;;;4984370;28;19930;-62
2023/09/03 08:25:29;;;;;;;;;;;21.90;1.00;;;;;;4992639;28;20394;-62
2023/09/03 08:27:56;;;;;;;;;;;21.90;1.00;;;;;;4992442;28;19929;-62
2023/09/03 08:30:23;;;;;;;;;;;21.90;1.00;;;;;;4992533;28;19956;-62
2023/09/03 08:32:50;;;;;;;;;;;21.90;1.00;;;;;;4992200;28;19932;-61
2023/09/03 08:35:16;;;;;;;;;;;21.90;1.00;;;;;;4993163;28;19926;-62
2023/09/03 08:37:43;;;;;;;;;;;21.90;1.00;;;;;;4996332;28;19977;-63
2023/09/03 08:40:10;;;;;;;;;;;21.90;1.00;;;;;;4996312;28;19933;-63
2023/09/03 08:42:40;;;;;;;;;;;21.90;1.00;;;;;;4996199;28;19984;-64
2023/09/03 08:45:09;;;;;;;;;;;21.90;1.00;;;;;;4995402;28;20431;-59
2023/09/03 08:47:38;;;;;;;;;;;21.90;1.00;;;;;;4993780;28;19926;-60
2023/09/03 08:50:07;;;;;;;;;;;21.90;1.00;;;;;;4994817;28;20024;-61
2023/09/03 08:52:35;;;;;;;;;;;21.90;1.00;;;;;;4993982;28;20361;-62
2023/09/03 08:55:06;;;;;;;;;;;21.90;1.00;;;;;;4991235;28;20440;-61
2023/09/03 08:57:34;;;;;;;;;;;21.90;1.00;;;;;;4993762;28;19940;-63
2023/09/03 09:00:05;;;;;;;;;;;21.90;1.00;;;;;;4995953;28;20028;-60
2023/09/03 09:02:32;;;;;;;;;;;21.90;1.00;;;;;;4996060;28;19926;-61
2023/09/03 09:05:00;;;;;;;;;;;21.90;1.00;;;;;;4995846;28;19940;-63
2023/09/03 09:07:27;;;;;;;;;;;21.90;1.00;;;;;;4996128;28;20020;-63
2023/09/03 09:09:58;;;;;;;;;;;21.90;1.00;;;;;;4996645;28;19926;-62
2023/09/03 09:12:27;;;;;;;;;;;22.00;1.00;;;;;;4996498;28;20020;-62
2023/09/03 09:15:03;;;;;;;;;;;22.00;1.00;;;;;;5078505;22;19924;-62
2023/09/03 09:17:39;;;;;;;;;;;22.00;1.00;;;;;;4950545;29;19926;-61
2023/09/03 09:20:07;;;;;;;;;;;21.90;1.00;;;;;;4942426;29;19926;-61
2023/09/03 09:22:41;;;;;;;;;;;22.00;1.00;;;;;;4954387;29;20391;-60
2023/09/03 09:25:08;;;;;;;;;;;22.00;1.00;;;;;;4941539;29;19933;-61
2023/09/03 09:27:36;;;;;;;;;;;22.00;1.00;;;;;;4956540;29;19927;-60
2023/09/03 09:30:10;;;;;;;;;;;22.00;1.00;;;;;;4956419;29;20021;-62
2023/09/03 09:32:36;;;;;;;;;;;22.00;1.00;;;;;;4956341;29;20054;-60
2023/09/03 09:35:04;;;;;;;;;;;22.00;1.00;;;;;;4955944;29;19961;-62
2023/09/03 09:37:41;;;;;;;;;;;22.00;1.00;;;;;;4956035;29;19969;-61
2023/09/03 09:40:08;;;;;;;;;;;22.00;1.00;;;;;;4956024;29;19982;-60
2023/09/03 09:42:50;;;;;;;;;;;22.00;1.00;;;;;;4955992;29;19981;-61
2023/09/03 09:48:13;;;;;;;;;;;22.00;1.00;;;;;;5121085;23;19933;-63
2023/09/03 09:50:41;;;;;;;;;;;22.00;1.00;;;;;;4994067;28;19926;-62
2023/09/03 09:53:24;;;;;;;;;;;22.00;1.00;;;;;;4994053;28;19926;-62
2023/09/03 09:56:01;;;;;;;;;;;22.00;1.00;;;;;;4992558;28;19972;-62
2023/09/03 09:58:38;;;;;;;;;;;22.00;1.00;;;;;;4981272;28;19930;-62
2023/09/03 10:01:06;;;;;;;;;;;22.10;1.00;;;;;;4994192;28;19932;-62
2023/09/03 10:03:40;;;;;;;;;;;22.10;1.00;;;;;;4987069;28;20364;-62
2023/09/03 10:06:08;;;;;;;;;;;22.10;1.00;;;;;;4978363;28;19932;-61
2023/09/03 10:08:35;;;;;;;;;;;22.10;1.00;;;;;;4994030;28;19926;-61
2023/09/03 10:11:02;;;;;;;;;;;22.10;1.00;;;;;;4991216;28;19973;-62
2023/09/03 10:13:31;;;;;;;;;;;22.10;1.00;;;;;;4989059;28;19948;-62
2023/09/03 10:16:02;;;;;;;;;;;22.10;1.00;;;;;;4993961;28;20346;-60
2023/09/03 10:18:31;;;;;;;;;;;22.10;1.00;;;;;;5057476;22;20025;-61
2023/09/03 10:21:00;;;;;;;;;;;22.10;1.00;;;;;;4984883;28;19933;-61
2023/09/03 10:23:29;;;;;;;;;;;22.10;1.00;;;;;;4993627;28;20049;-61
2023/09/03 10:25:57;;;;;;;;;;;22.10;1.00;;;;;;4984450;28;19953;-62
2023/09/03 10:28:34;;;;;;;;;;;22.10;1.00;;;;;;4974412;28;19930;-62
2023/09/03 10:31:01;;;;;;;;;;;22.10;1.00;;;;;;4971751;28;19933;-61
2023/09/03 10:33:28;;;;;;;;;;;22.10;1.00;;;;;;4969081;28;19926;-61
2023/09/03 10:36:21;;;;;;;;;;;22.10;1.00;;;;;;4968730;28;19955;-63
2023/09/03 10:38:48;;;;;;;;;;;22.10;1.00;;;;;;4949894;28;20032;-63
2023/09/03 10:41:16;;;;;;;;;;;22.10;1.00;;;;;;4951852;28;19948;-63
2023/09/03 10:43:48;;;;;;;;;;;22.10;1.00;;;;;;4951510;29;19927;-61
2023/09/03 10:46:15;;;;;;;;;;;22.10;1.00;;;;;;4957151;28;20371;-63
2023/09/03 10:48:51;;;;;;;;;;;22.10;1.00;;;;;;4955023;29;19927;-61
2023/09/03 10:51:35;;;;;;;;;;;22.10;1.00;;;;;;4952749;29;20021;-62
2023/09/03 10:54:20;;;;;;;;;;;22.10;1.00;;;;;;4955388;28;20299;-62
2023/09/03 10:57:05;;;;;;;;;;;22.10;1.00;;;;;;4952872;28;20303;-63
2023/09/03 10:59:51;;;;;;;;;;;22.10;1.00;;;;;;4955265;28;19926;-60
2023/09/03 11:02:23;;;;;;;;;;;22.10;1.00;;;;;;4955805;29;19926;-62
2023/09/03 11:05:09;;;;;;;;;;;22.10;1.00;;;;;;4954439;28;19930;-62
2023/09/03 11:07:36;;;;;;;;;;;22.20;1.00;;;;;;4955236;28;20424;-61
2023/09/03 11:10:21;;;;;;;;;;;22.20;1.00;;;;;;4954949;29;20025;-61
2023/09/03 11:12:48;;;;;;;;;;;22.10;1.00;;;;;;4971133;28;19941;-62
2023/09/03 11:15:15;;;;;;;;;;;22.20;1.00;;;;;;4950740;28;19974;-62
2023/09/03 11:17:42;;;;;;;;;;;22.20;1.00;;;;;;4954417;28;19927;-61
2023/09/03 11:20:11;;;;;;;;;;;22.20;1.00;;;;;;4955017;29;19989;-62
2023/09/03 11:22:38;;;;;;;;;;;22.20;1.00;;;;;;4969237;28;19977;-62
2023/09/03 11:25:07;;;;;;;;;;;22.20;1.00;;;;;;4954968;28;19930;-62
2023/09/03 11:27:33;;;;;;;;;;;22.20;1.00;;;;;;4971306;28;20033;-62
2023/09/03 11:30:04;;;;;;;;;;;22.20;1.00;;;;;;4977606;28;19926;-62
2023/09/03 11:32:34;;;;;;;;;;;22.10;1.00;;;;;;4977705;28;19949;-62
2023/09/03 11:35:01;;;;;;;;;;;22.20;1.00;;;;;;4958122;28;20298;-62
2023/09/03 11:37:28;;;;;;;;;;;22.20;1.00;;;;;;4962351;28;20378;-62
2023/09/03 11:39:55;;;;;;;;;;;22.20;1.00;;;;;;4949277;29;19927;-63
2023/09/03 11:42:22;;;;;;;;;;;22.20;1.00;;;;;;4969210;28;19930;-62
2023/09/03 11:44:52;;;;;;;;;;;22.20;1.00;;;;;;4975891;28;20374;-62
2023/09/03 11:47:19;;;;;;;;;;;22.20;1.00;;;;;;4976092;28;19926;-62
2023/09/03 11:49:47;;;;;;;;;;;22.20;1.00;;;;;;5029373;23;19989;-61
2023/09/03 11:52:15;;;;;;;;;;;22.20;1.00;;;;;;4967495;28;20022;-61
2023/09/03 11:54:42;;;;;;;;;;;22.20;1.00;;;;;;4975713;28;19926;-62
2023/09/03 11:57:11;;;;;;;;;;;22.20;1.00;;;;;;4976054;28;19930;-62
2023/09/03 11:59:38;;;;;;;;;;;22.20;1.00;;;;;;4975056;28;19930;-63
2023/09/03 12:02:05;;;;;;;;;;;22.20;1.00;;;;;;4975059;28;20017;-64
2023/09/03 12:04:32;;;;;;;;;;;22.20;1.00;;;;;;4974518;28;20017;-61
2023/09/03 12:06:59;;;;;;;;;;;22.20;1.00;;;;;;4974910;28;19957;-62
2023/09/03 12:09:28;;;;;;;;;;;22.20;1.00;;;;;;4975316;28;19926;-62
2023/09/03 12:11:55;;;;;;;;;;;22.20;1.00;;;;;;4978642;28;19942;-62
2023/09/03 12:14:31;;;;;;;;;;;22.20;1.00;;;;;;4978762;28;20436;-62
2023/09/03 12:16:58;;;;;;;;;;;22.20;1.00;;;;;;4978598;28;19997;-62
2023/09/03 12:19:36;;;;;;;;;;;22.20;1.00;;;;;;4979150;28;19953;-63
2023/09/03 12:22:03;;;;;;;;;;;22.20;1.00;;;;;;4979378;28;20021;-61
2023/09/03 12:24:30;;;;;;;;;;;22.20;1.00;;;;;;4979324;28;19926;-62
2023/09/03 12:27:03;;;;;;;;;;;22.20;1.00;;;;;;4978727;28;19930;-62
2023/09/03 12:29:36;;;;;;;;;;;22.20;1.00;;;;;;4979224;28;19938;-62
2023/09/03 12:32:17;;;;;;;;;;;22.20;1.00;;;;;;4978986;28;20020;-64
2023/09/03 12:34:49;;;;;;;;;;;22.20;1.00;;;;;;4977560;28;20321;-62
2023/09/03 12:37:16;;;;;;;;;;;22.20;1.00;;;;;;4970840;28;19930;-64
2023/09/03 12:39:43;;;;;;;;;;;22.20;1.00;;;;;;4978789;28;20013;-64
2023/09/03 12:42:10;;;;;;;;;;;22.20;1.00;;;;;;4977577;28;19930;-65
2023/09/03 12:44:40;;;;;;;;;;;22.20;1.00;;;;;;4977726;28;19926;-62
2023/09/03 12:47:09;;;;;;;;;;;22.20;1.00;;;;;;4977658;28;19965;-62
2023/09/03 12:49:35;;;;;;;;;;;22.20;1.00;;;;;;4977667;28;19929;-62
2023/09/03 12:52:02;;;;;;;;;;;22.20;1.00;;;;;;5169446;23;19969;-62
2023/09/03 12:54:31;;;;;;;;;;;22.20;1.00;;;;;;4997267;28;20401;-62
2023/09/03 12:56:59;;;;;;;;;;;22.20;1.00;;;;;;4997653;28;20328;-61
2023/09/03 12:59:26;;;;;;;;;;;22.20;1.00;;;;;;4998551;28;19925;-61
2023/09/03 13:01:52;;;;;;;;;;;22.20;1.00;;;;;;4998151;28;19972;-62
2023/09/03 13:04:19;;;;;;;;;;;22.20;1.00;;;;;;4997784;28;19969;-63
2023/09/03 13:06:46;;;;;;;;;;;22.30;1.00;;;;;;4997584;28;19945;-62
2023/09/03 13:09:13;;;;;;;;;;;22.30;1.00;;;;;;4997638;28;19969;-61
2023/09/03 13:11:39;;;;;;;;;;;22.30;1.00;;;;;;4997626;28;19972;-63
2023/09/03 13:14:06;;;;;;;;;;;22.30;1.00;;;;;;4997467;28;19984;-63
2023/09/03 13:16:33;;;;;;;;;;;22.30;1.00;;;;;;4997350;28;20020;-62
2023/09/03 13:19:00;;;;;;;;;;;22.30;1.00;;;;;;4997568;28;19925;-62
2023/09/03 13:21:27;;;;;;;;;;;22.30;1.00;;;;;;4997373;28;19932;-62
2023/09/03 13:23:54;;;;;;;;;;;22.30;1.00;;;;;;4997872;28;20394;-62
2023/09/03 13:26:21;;;;;;;;;;;22.20;1.00;;;;;;4996890;28;19926;-62
2023/09/03 13:28:47;;;;;;;;;;;22.30;1.00;;;;;;4995263;28;20417;-62
2023/09/03 13:31:15;;;;;;;;;;;22.30;1.00;;;;;;4996148;28;19957;-63
2023/09/03 13:33:42;;;;;;;;;;;22.30;1.00;;;;;;4996421;28;19961;-62
2023/09/03 13:36:10;;;;;;;;;;;22.30;1.00;;;;;;4996244;28;20485;-62
2023/09/03 13:38:38;;;;;;;;;;;22.30;1.00;;;;;;4996080;28;20439;-63
2023/09/03 13:41:05;;;;;;;;;;;22.30;1.00;;;;;;4996389;28;20039;-63
2023/09/03 13:43:32;;;;;;;;;;;22.30;1.00;;;;;;4995554;28;19932;-63
2023/09/03 13:46:00;;;;;;;;;;;22.20;1.00;;;;;;4995840;28;19926;-62
2023/09/03 13:48:27;;;;;;;;;;;22.30;1.00;;;;;;4995219;28;19949;-62
2023/09/03 13:50:56;;;;;;;;;;;22.30;1.00;;;;;;4995057;28;19933;-62
2023/09/03 13:53:23;;;;;;;;;;;22.30;1.00;;;;;;4985794;28;19973;-62
2023/09/03 13:55:51;;;;;;;;;;;22.30;1.00;;;;;;4987863;28;20313;-63
2023/09/03 13:58:18;;;;;;;;;;;22.30;1.00;;;;;;4986970;28;20365;-63
2023/09/03 14:00:45;;;;;;;;;;;22.30;1.00;;;;;;4984876;28;19995;-62
2023/09/03 14:03:12;;;;;;;;;;;22.30;1.00;;;;;;4989625;28;20426;-62
2023/09/03 14:05:39;;;;;;;;;;;22.30;1.00;;;;;;4991496;28;19964;-64
2023/09/03 14:08:06;;;;;;;;;;;22.30;1.00;;;;;;4988792;28;19930;-62
2023/09/03 14:10:33;;;;;;;;;;;22.30;1.00;;;;;;4986836;28;19926;-62
2023/09/03 14:13:00;;;;;;;;;;;22.30;1.00;;;;;;4986797;28;19929;-62
2023/09/03 14:15:27;;;;;;;;;;;22.30;1.00;;;;;;4989375;28;19932;-62
2023/09/03 14:17:54;;;;;;;;;;;22.40;1.00;;;;;;4991219;28;19961;-61
2023/09/03 14:20:21;;;;;;;;;;;22.30;1.00;;;;;;4987000;28;19933;-62
2023/09/03 14:25:37;;;;;;;;;;;22.40;1.00;;;;;;4950483;28;19974;-61
2023/09/03 14:28:04;;;;;;;;;;;22.40;1.00;;;;;;4953959;29;19927;-63
2023/09/03 14:30:31;;;;;;;;;;;22.30;1.00;;;;;;4950552;29;19927;-62
2023/09/03 14:32:58;;;;;;;;;;;22.40;1.00;;;;;;4956022;28;19969;-63
2023/09/03 14:35:25;;;;;;;;;;;22.40;1.00;;;;;;4956430;29;20493;-62
2023/09/03 14:37:51;;;;;;;;;;;22.40;1.00;;;;;;4956543;29;19927;-63
2023/09/03 14:40:18;;;;;;;;;;;22.40;1.00;;;;;;4956354;29;19927;-63
2023/09/03 14:42:45;;;;;;;;;;;22.40;1.00;;;;;;4955828;29;19934;-63
2023/09/03 14:45:11;;;;;;;;;;;22.40;1.00;;;;;;4937720;29;19927;-63
2023/09/03 14:47:39;;;;;;;;;;;22.40;1.00;;;;;;4955656;29;19926;-63